Pagrindinis puslapis
METAR-TAF:

METAR-TAF

Oro uostai :

Tumbes, Peru

platuma: 03-33S, ilguma: 080-24W, Aukštis: 25 m

Dabartinis oras

Ataskaita buvo paskelbta 11 valandos ir 45 minutes, ne 21:00 UTC
Temperatūra 25°C
Drėgmė 74%
Slėgis 1009 hPa
Matomumas 10 km arba daugiau
Su prošvaistėmis ne aukštis 1400 ft

METAR: SPME 202100Z /////KT 9999 BKN014 25/20 Q1009 RMK BIRD HAZARD RWY 32/14 PP000

Laikas: 03:45 (08:45 UTC)

Prognozė

Ataskaita buvo paskelbta 15 valandos ir 45 minutes, ne 17:00 UTC
Prognozė galioja nuo 20 metu 18 UTC su 21 metu 18 UTC
Vėjas 10 kt iš Šiaurės
Matomumas 10 km arba daugiau
Su prošvaistėmis ne aukštis 1300 ft
Tapsmas
nuo 21 metu 00 UTC su 21 metu 02 UTC
Vėjas 3 kt iš Vakarų/Pietvakarių
Apsiniaukę ne aukštis 1200 ft

TAF: SPME 201700Z 2018/2118 35010KT 9999 BKN013 TX27/2019Z TN21/2111Z BECMG 2100/2102 24003KT OVC012

Orai ataskaitas ir orų prognozės (METAR, TAF).

turimą stotys yra geltonos ir raudonos taškus žemėlapyje.

Perkelti pele per norėdami pamatyti stoties vardą.

Tada spustelėkite, norėdami matyti oro stebėjimo ir prognozės.

Norėdami pakeisti žemėlapį: spustelėkite ant žalios mygtukų su juodo kryžiaus žemyn,; žalią mygtuką su brūkšneliu, jei norite nutolinti; arba žalių rodyklių gretimoms žemėlapius.


METAR-TAF: